Time;durP1;ratioP1;P1;durP2;ratioP2;P2;SDS_P1;SDS_P2;PMS_P1;PMS_P2;Temp;Humidity;BMP_temperature;BMP_pressure;BME280_temperature;BME280_humidity;BME280_pressure;Samples;Min_cycle;Max_cycle;Signal;HPM_P1;HPM_P2
2021/04/28 00:00:32;;;;;;;11.97;6.23;;;;;;;4.99;55.54;99256.72;2069035;28;20029;-58
2021/04/28 00:01:32;;;;;;;10.35;5.57;;;;;;;4.96;55.43;99258.53;2068631;28;20362;-58
2021/04/28 00:02:32;;;;;;;10.57;6.17;;;;;;;4.95;55.40;99255.06;2065065;28;20038;-58
2021/04/28 00:03:32;;;;;;;11.13;6.07;;;;;;;4.97;54.82;99255.91;2068941;28;20510;-58
2021/04/28 00:04:33;;;;;;;13.03;5.43;;;;;;;4.91;55.46;99261.22;2068668;28;20383;-58
2021/04/28 00:05:34;;;;;;;6.07;4.47;;;;;;;4.90;55.24;99254.34;2068101;28;20026;-59
2021/04/28 00:06:35;;;;;;;;;;;;;;;4.87;54.91;99249.22;2066744;28;20034;-59
2021/04/28 00:07:36;;;;;;;8.55;4.22;;;;;;;4.81;55.99;99254.53;2067641;28;19918;-58
2021/04/28 00:08:36;;;;;;;6.55;4.13;;;;;;;4.89;55.26;99246.63;2065593;28;20176;-58
2021/04/28 00:09:36;;;;;;;12.87;4.37;;;;;;;5.02;54.62;99247.22;2065685;28;20450;-67
2021/04/28 00:10:40;;;;;;;7.97;4.10;;;;;;;4.97;55.06;99245.56;2068065;28;20040;-67
2021/04/28 00:11:41;;;;;;;7.50;4.40;;;;;;;4.94;55.46;99243.06;2070801;28;20036;-67
2021/04/28 00:12:42;;;;;;;7.40;4.35;;;;;;;4.97;55.28;99242.97;2069222;28;20116;-67
2021/04/28 00:13:43;;;;;;;5.53;3.92;;;;;;;4.99;54.93;99254.13;2069856;28;20152;-67
2021/04/28 00:14:43;;;;;;;7.07;4.15;;;;;;;4.96;54.44;99246.44;2068805;28;20056;-67
2021/04/28 00:15:46;;;;;;;10.90;4.40;;;;;;;5.04;54.34;99245.44;2069727;28;20045;-66
2021/04/28 00:16:46;;;;;;;8.15;4.63;;;;;;;4.97;55.17;99248.16;2069303;28;20022;-66
2021/04/28 00:17:47;;;;;;;5.47;3.97;;;;;;;4.97;54.57;99242.97;2069289;28;20029;-66
2021/04/28 00:18:48;;;;;;;7.07;4.30;;;;;;;4.94;55.02;99245.66;2069218;28;20060;-66
2021/04/28 00:19:48;;;;;;;8.63;4.32;;;;;;;4.96;55.01;99238.69;2069198;28;20153;-66
2021/04/28 00:20:49;;;;;;;6.47;4.03;;;;;;;4.91;55.13;99235.38;2069075;28;20478;-66
2021/04/28 00:21:50;;;;;;;9.77;4.30;;;;;;;4.95;54.79;99239.56;2068478;28;20117;-66
2021/04/28 00:22:50;;;;;;;6.78;4.28;;;;;;;4.92;55.00;99241.38;2069342;28;20036;-66
2021/04/28 00:23:51;;;;;;;8.50;4.15;;;;;;;4.89;55.08;99237.16;2068688;28;20535;-66
2021/04/28 00:24:51;;;;;;;6.43;4.10;;;;;;;4.89;55.19;99229.41;2069654;28;20215;-65
2021/04/28 00:25:51;;;;;;;9.30;4.57;;;;;;;4.87;55.59;99238.06;2069573;28;20538;-66
2021/04/28 00:26:52;;;;;;;6.50;4.30;;;;;;;4.85;55.85;99243.25;2069430;28;20099;-66
2021/04/28 00:27:52;;;;;;;9.60;4.37;;;;;;;4.83;55.46;99237.28;2070036;28;20043;-66
2021/04/28 00:28:52;;;;;;;6.90;4.63;;;;;;;4.83;55.35;99232.97;2069092;28;20109;-66
2021/04/28 00:29:53;;;;;;;8.37;4.33;;;;;;;4.83;55.55;99237.28;2069717;28;20025;-66
2021/04/28 00:30:53;;;;;;;9.73;4.20;;;;;;;4.82;55.29;99238.19;2069713;28;20550;-66
2021/04/28 00:31:53;;;;;;;9.93;4.00;;;;;;;4.88;55.27;99232.88;2069962;28;20414;-66
2021/04/28 00:32:54;;;;;;;9.03;4.23;;;;;;;4.84;55.87;99236.41;2069487;28;20029;-66
2021/04/28 00:33:54;;;;;;;6.28;4.10;;;;;;;4.86;55.36;99234.63;2070094;28;21553;-66
2021/04/28 00:34:55;;;;;;;9.70;4.63;;;;;;;4.77;55.40;99238.28;2069667;28;20065;-66
2021/04/28 00:35:56;;;;;;;5.78;4.35;;;;;;;4.77;55.23;99229.66;2069601;28;20122;-68
2021/04/28 00:36:56;;;;;;;6.65;4.40;;;;;;;4.73;56.24;99235.78;2069535;28;20099;-66
2021/04/28 00:37:57;;;;;;;13.23;4.40;;;;;;;4.67;55.77;99227.28;2067791;28;20475;-65
2021/04/28 00:38:57;;;;;;;5.40;3.90;;;;;;;4.65;56.10;99229.03;2068726;28;20108;-66
2021/04/28 00:39:57;;;;;;;8.77;4.30;;;;;;;4.63;55.98;99230.84;2068753;28;20912;-67
2021/04/28 00:40:58;;;;;;;8.37;4.73;;;;;;;4.63;55.90;99230.84;2069380;28;20026;-67
2021/04/28 00:41:59;;;;;;;10.33;4.40;;;;;;;4.61;56.43;99231.72;2066511;28;20109;-66
2021/04/28 00:43:00;;;;;;;8.02;3.75;;;;;;;4.57;55.98;99235.28;2065932;28;20300;-66
2021/04/28 00:44:00;;;;;;;8.68;3.83;;;;;;;4.54;56.07;99231.03;2069722;28;20467;-67
2021/04/28 00:45:02;;;;;;;7.00;3.92;;;;;;;4.58;55.83;99232.66;2069897;28;20546;-67
2021/04/28 00:46:04;;;;;;;6.50;4.22;;;;;;;4.59;56.32;99225.78;2069875;28;20058;-66
2021/04/28 00:47:05;;;;;;;6.13;4.00;;;;;;;4.55;56.31;99232.72;2070090;28;20026;-67
2021/04/28 00:48:07;;;;;;;10.37;4.40;;;;;;;4.59;56.41;99221.44;2070586;28;20037;-66
2021/04/28 00:49:07;;;;;;;6.72;3.80;;;;;;;4.63;56.99;99223.09;2070191;28;20029;-66
2021/04/28 00:50:10;;;;;;;5.67;4.10;;;;;;;4.62;56.71;99221.38;2069243;28;20105;-66
2021/04/28 00:51:10;;;;;;;9.18;4.43;;;;;;;4.58;56.68;99222.31;2071314;28;20064;-57
2021/04/28 00:52:11;;;;;;;8.40;4.47;;;;;;;4.55;56.71;99222.41;2071127;28;20475;-58
2021/04/28 00:53:15;;;;;;;6.57;4.27;;;;;;;4.59;56.57;99218.88;2071105;28;20497;-58
2021/04/28 00:54:17;;;;;;;7.25;3.92;;;;;;;4.56;56.40;99223.25;2071321;28;20029;-60
2021/04/28 00:55:17;;;;;;;;;;;;;;;4.56;56.59;99220.66;2071956;28;20030;-58
2021/04/28 00:56:18;;;;;;;39.28;25.33;;;;;;;4.60;56.79;99219.72;2070850;28;19960;-58
2021/04/28 00:57:18;;;;;;;14.47;10.13;;;;;;;4.58;57.07;99221.50;2070314;28;20038;-58
2021/04/28 00:58:21;;;;;;;21.07;12.53;;;;;;;4.54;57.60;99225.88;2071250;28;20026;-58
2021/04/28 00:59:21;;;;;;;53.38;32.42;;;;;;;4.63;57.92;99223.09;2070490;28;20055;-57
2021/04/28 01:00:23;;;;;;;41.70;26.00;;;;;;;4.60;57.00;99219.72;2070063;28;20061;-58
2021/04/28 01:01:23;;;;;;;19.00;9.13;;;;;;;4.57;57.34;99224.94;2071373;28;20755;-58
2021/04/28 01:02:23;;;;;;;12.90;6.60;;;;;;;4.59;57.80;99218.03;2071766;28;20034;-58
2021/04/28 01:03:28;;;;;;;13.10;6.50;;;;;;;4.54;57.89;99225.88;2071912;28;20034;-58
2021/04/28 01:04:29;;;;;;;8.02;4.95;;;;;;;4.52;57.34;99222.47;2070884;28;20029;-58
2021/04/28 01:05:29;;;;;;;8.18;4.63;;;;;;;4.49;57.25;99222.53;2072255;28;20021;-58
2021/04/28 01:06:30;;;;;;;6.85;4.22;;;;;;;4.48;57.05;99218.25;2071814;28;20092;-58
2021/04/28 01:07:30;;;;;;;8.50;4.33;;;;;;;4.51;57.43;99216.44;2071685;28;20483;-58
2021/04/28 01:08:31;;;;;;;12.63;4.57;;;;;;;4.49;58.15;99225.09;2070138;28;20048;-58
2021/04/28 01:09:34;;;;;;;10.00;4.50;;;;;;;4.44;57.88;99224.38;2070342;28;20064;-58
2021/04/28 01:10:36;;;;;;;6.80;4.30;;;;;;;4.46;57.43;99222.56;2070902;28;20045;-57
2021/04/28 01:11:36;;;;;;;6.72;4.32;;;;;;;4.50;57.89;99219.06;2069508;28;20029;-56
2021/04/28 01:12:38;;;;;;;8.93;4.33;;;;;;;4.56;57.30;99220.66;2070936;28;20109;-56
2021/04/28 01:13:38;;;;;;;7.75;4.45;;;;;;;4.51;57.45;99218.19;2071011;28;20091;-57
2021/04/28 01:14:39;;;;;;;7.15;4.32;;;;;;;4.50;58.33;99224.22;2071015;28;20091;-58
2021/04/28 01:15:39;;;;;;;7.60;4.00;;;;;;;4.49;58.48;99219.94;2071399;28;20495;-58
2021/04/28 01:16:40;;;;;;;6.67;4.03;;;;;;;4.52;58.37;99218.13;2070325;28;20033;-58
2021/04/28 01:17:41;;;;;;;12.00;4.80;;;;;;;4.47;58.38;99216.53;2071219;28;20025;-58
2021/04/28 01:18:42;;;;;;;8.63;3.88;;;;;;;4.47;58.44;99208.78;2070876;28;20483;-58
2021/04/28 01:19:42;;;;;;;7.85;4.65;;;;;;;4.42;58.08;99210.63;2070809;28;20040;-57
2021/04/28 01:20:43;;;;;;;5.70;4.00;;;;;;;4.38;58.39;99220.19;2071225;28;20022;-58
2021/04/28 01:21:45;;;;;;;8.18;4.20;;;;;;;4.35;58.24;99220.22;2071026;28;20026;-58
2021/04/28 01:22:46;;;;;;;7.45;4.13;;;;;;;4.38;58.33;99214.16;2071038;28;20050;-57
2021/04/28 01:23:47;;;;;;;7.30;4.57;;;;;;;4.34;58.39;99213.38;2071143;28;20057;-58
2021/04/28 01:24:49;;;;;;;9.50;4.60;;;;;;;4.35;58.35;99213.34;2070392;28;20068;-60
2021/04/28 01:25:50;;;;;;;8.82;4.85;;;;;;;4.37;58.69;99213.31;2070673;28;20548;-57
2021/04/28 01:26:59;;;;;;;5.28;4.10;;;;;;;4.33;59.04;99212.53;2070844;28;20033;-58
2021/04/28 01:28:13;;;;;;;7.68;4.40;;;;;;;4.27;58.87;99206.66;2071005;28;20029;-58
2021/04/28 01:29:16;;;;;;;8.85;4.40;;;;;;;4.27;58.65;99209.22;2069018;28;20557;-58
2021/04/28 01:30:17;;;;;;;7.70;4.95;;;;;;;4.30;58.87;99212.59;2070686;28;20517;-58
2021/04/28 01:31:21;;;;;;;12.77;4.55;;;;;;;4.26;58.54;99216.09;2071094;28;20068;-58
2021/04/28 01:32:23;;;;;;;6.68;4.20;;;;;;;4.20;59.00;99214.53;2062232;28;20046;-58
2021/04/28 01:33:41;;;;;;;;;;;;;;;4.18;59.38;99212.81;2063020;28;20063;-58
2021/04/28 01:34:43;;;;;;;10.13;4.35;;;;;;;4.15;59.52;99207.75;2071220;28;19913;-58
2021/04/28 01:35:50;;;;;;;6.35;4.30;;;;;;;4.15;59.80;99210.34;2070626;28;20144;-58
2021/04/28 01:36:53;;;;;;;8.05;4.50;;;;;;;4.18;59.20;99217.97;2070842;28;20022;-58
2021/04/28 01:37:55;;;;;;;9.68;4.70;;;;;;;4.13;59.36;99207.75;2068853;28;20018;-58
2021/04/28 01:38:58;;;;;;;6.68;4.15;;;;;;;4.09;59.54;99210.44;2070802;28;20029;-58
2021/04/28 01:40:00;;;;;;;6.95;4.38;;;;;;;4.12;59.59;99212.97;2071041;28;20022;-58
2021/04/28 01:41:01;;;;;;;10.75;4.63;;;;;;;4.07;59.47;99210.47;2066576;28;20080;-58
2021/04/28 01:42:01;;;;;;;9.10;4.45;;;;;;;4.03;59.52;99212.28;2069120;28;20021;-57
2021/04/28 01:43:03;;;;;;;9.93;4.73;;;;;;;4.01;60.58;99210.59;2070556;28;20029;-58
2021/04/28 01:44:04;;;;;;;7.20;4.38;;;;;;;3.94;60.23;99211.56;2070399;28;20071;-58
2021/04/28 01:45:05;;;;;;;7.40;4.38;;;;;;;3.96;59.70;99212.41;2071310;28;20450;-58
2021/04/28 01:46:06;;;;;;;7.00;4.07;;;;;;;3.94;59.87;99211.56;2070636;28;20438;-57
2021/04/28 01:47:07;;;;;;;6.13;4.57;;;;;;;3.92;59.70;99210.78;2071127;28;20052;-57
2021/04/28 01:48:10;;;;;;;7.72;4.57;;;;;;;3.86;60.22;99210.00;2071118;28;20034;-58
2021/04/28 01:49:11;;;;;;;10.20;4.60;;;;;;;3.83;60.58;99212.63;2068246;28;20494;-58
2021/04/28 01:50:15;;;;;;;5.53;4.13;;;;;;;3.82;60.70;99212.66;2071123;28;20104;-57
2021/04/28 01:51:16;;;;;;;14.48;4.45;;;;;;;3.80;60.55;99207.56;2068702;28;20036;-57
2021/04/28 01:52:18;;;;;;;;;;;;;;;3.86;60.72;99202.28;2071336;28;20550;-57
2021/04/28 01:53:20;;;;;;;;;;;;;;;3.81;60.88;99203.22;2071628;28;20114;-57
2021/04/28 01:54:20;;;;;;;;;;;;;;;3.84;61.45;99211.75;2071289;28;20000;-58
2021/04/28 01:55:20;;;;;;;;;;;;;;;3.82;61.45;99208.34;2071661;28;19913;-57
2021/04/28 01:56:21;;;;;;;;;;;;;;;3.84;61.38;99205.75;2071209;28;19943;-58
2021/04/28 01:57:24;;;;;;;;;;;;;;;3.83;61.35;99212.63;2071071;28;21556;-58
2021/04/28 01:58:25;;;;;;;;;;;;;;;3.80;61.74;99204.97;2070657;28;19917;-58
2021/04/28 01:59:26;;;;;;;;;;;;;;;3.81;62.12;99195.50;2071211;28;19917;-58
2021/04/28 02:00:27;;;;;;;;;;;;;;;3.79;62.07;99200.69;2071261;28;19924;-57
2021/04/28 02:01:27;;;;;;;;;;;;;;;3.82;62.17;99197.19;2070681;28;19925;-57
2021/04/28 02:02:27;;;;;;;;;;;;;;;3.80;62.23;99196.38;2070698;28;19967;-57
2021/04/28 02:03:27;;;;;;;;;;;;;;;3.81;62.14;99196.38;2070392;28;19976;-58
2021/04/28 02:04:28;;;;;;;;;;;;;;;3.84;62.31;99206.59;2065657;28;19925;-58
2021/04/28 02:05:29;;;;;;;;;;;;;;;3.85;62.37;99202.31;2071314;28;19917;-58
2021/04/28 02:06:29;;;;;;;;;;;;;;;3.84;62.58;99200.59;2071038;28;19956;-58
2021/04/28 02:07:29;;;;;;;;;;;;;;;3.87;62.29;99203.97;2070897;28;19940;-58
2021/04/28 02:08:30;;;;;;;;;;;;;;;3.84;62.58;99208.34;2070873;28;19914;-58
2021/04/28 02:09:30;;;;;;;;;;;;;;;3.82;62.78;99210.94;2070781;28;19909;-58
2021/04/28 02:10:30;;;;;;;;;;;;;;;3.85;62.90;99210.03;2071108;28;19962;-57
2021/04/28 02:11:31;;;;;;;;;;;;;;;3.81;62.68;99198.94;2069880;28;20706;-57
2021/04/28 02:12:31;;;;;;;;;;;;;;;3.78;62.83;99203.28;2070529;28;20343;-58
2021/04/28 02:13:34;;;;;;;;;;;;;;;3.76;62.91;99210.22;2070758;28;19916;-58
2021/04/28 02:14:35;;;;;;;;;;;;;;;3.71;63.05;99202.56;2069931;28;21042;-57
2021/04/28 02:15:35;;;;;;;;;;;;;;;3.66;63.02;99194.91;2070415;28;19917;-57
2021/04/28 02:16:38;;;;;;;;;;;;;;;3.70;62.65;99203.44;2070445;28;19921;-58
2021/04/28 02:17:39;;;;;;;;;;;;;;;3.64;62.67;99199.25;2070108;28;19917;-58
2021/04/28 02:18:40;;;;;;;;;;;;;;;3.62;63.43;99198.41;2070534;28;20094;-58
2021/04/28 02:19:41;;;;;;;;;;;;;;;3.58;63.18;99197.63;2071295;28;20468;-58
2021/04/28 02:20:41;;;;;;;;;;;;;;;3.60;63.38;99192.44;2071075;28;19953;-57
2021/04/28 02:21:43;;;;;;;;;;;;;;;3.60;63.47;99187.28;2070761;28;19917;-57
2021/04/28 02:22:43;;;;;;;;;;;;;;;3.60;63.78;99195.00;2070672;28;20690;-57
2021/04/28 02:23:44;;;;;;;;;;;;;;;3.58;63.76;99192.47;2070576;28;19918;-58
2021/04/28 02:24:44;;;;;;;;;;;;;;;3.56;63.92;99188.22;2070745;28;19921;-58
2021/04/28 02:25:44;;;;;;;;;;;;;;;3.54;64.12;99190.81;2070732;28;20583;-58
2021/04/28 02:26:45;;;;;;;;;;;;;;;3.53;63.93;99183.13;2070258;28;20735;-58
2021/04/28 02:27:45;;;;;;;;;;;;;;;3.53;64.21;99189.09;2070992;28;20374;-58
2021/04/28 02:28:46;;;;;;;;;;;;;;;3.51;64.17;99185.72;2070992;28;19913;-57
2021/04/28 02:29:46;;;;;;;;;;;;;;;3.53;64.09;99188.28;2070839;28;19940;-58
2021/04/28 02:30:46;;;;;;;;;;;;;;;3.55;63.86;99183.94;2071250;28;19909;-58
2021/04/28 02:31:46;;;;;;;;;;;;;;;3.50;64.09;99178.88;2070634;28;19921;-58
2021/04/28 02:32:49;;;;;;;;;;;;;;;3.52;64.54;99184.00;2070873;28;19983;-58
2021/04/28 02:33:49;;;;;;;;;;;;;;;3.54;64.59;99174.53;2071946;28;19916;-58
2021/04/28 02:34:49;;;;;;;;;;;;;;;3.53;64.82;99183.13;2071077;28;20277;-58
2021/04/28 02:35:50;;;;;;;;;;;;;;;3.50;64.70;99176.31;2071106;28;19917;-58
2021/04/28 02:36:51;;;;;;;;;;;;;;;3.50;64.32;99178.88;2070373;28;19920;-58
2021/04/28 02:38:12;;;;;;;;;;;;;;;3.46;65.04;99172.06;2071138;28;19936;-58
2021/04/28 02:39:16;;;;;;;;;;;;;;;3.47;65.06;99172.94;2040618;28;21084;-58
2021/04/28 02:40:16;;;;;;;;;;;;;;;3.47;64.60;99170.38;2064554;28;20360;-58
2021/04/28 02:41:17;;;;;;;;;;;;;;;3.43;64.74;99172.97;2071232;28;19910;-58
2021/04/28 02:42:18;;;;;;;;;;;;;;;3.40;64.75;99170.44;2070725;28;19917;-57
2021/04/28 02:43:19;;;;;;;;;;;;;;;3.40;65.07;99178.19;2070611;28;19913;-58
2021/04/28 02:44:20;;;;;;;;;;;;;;;3.43;65.08;99172.97;2071067;28;19920;-58
2021/04/28 02:45:21;;;;;;;;;;;;;;;3.44;65.05;99173.81;2070837;28;19909;-58
2021/04/28 02:46:22;;;;;;;;;;;;;;;3.38;64.89;99172.19;2070424;28;19928;-58
2021/04/28 02:47:23;;;;;;;;;;;;;;;3.45;65.32;99172.94;2070970;28;19917;-57
2021/04/28 02:48:25;;;;;;;;;;;;;;;3.43;65.03;99178.13;2070238;28;19909;-57
2021/04/28 02:49:26;;;;;;;;;;;;;;;3.40;64.88;99167.88;2074865;28;19956;-57
2021/04/28 02:50:27;;;;;;;;;;;;;;;3.36;64.97;99163.66;2071510;28;20008;-58
2021/04/28 02:51:29;;;;;;;;;;;;;;;3.36;65.70;99170.53;2070544;28;20317;-58
2021/04/28 02:52:30;;;;;;;;;;;;;;;3.32;65.71;99169.75;2070476;28;19924;-57
2021/04/28 02:53:31;;;;;;;;;;;;;;;3.32;66.03;99174.06;2070802;28;20404;-58
2021/04/28 02:54:31;;;;;;;;;;;;;;;3.26;65.97;99169.84;2070763;28;19917;-58
2021/04/28 02:55:32;;;;;;;;;;;;;;;3.23;66.19;99169.91;2062412;28;19913;-58
2021/04/28 02:56:33;;;;;;;;;;;;;;;3.19;66.21;99171.69;2046040;28;19937;-58
2021/04/28 02:57:33;;;;;;;;;;;;;;;3.19;66.14;99171.69;2061260;28;20382;-58
2021/04/28 02:58:33;;;;;;;;;;;;;;;3.18;66.08;99171.72;2070405;28;20445;-57
2021/04/28 02:59:34;;;;;;;;;;;;;;;3.21;66.03;99166.50;2069599;28;19984;-57
2021/04/28 03:00:34;;;;;;;;;;;;;;;3.15;66.39;99170.00;2069915;28;20381;-57
2021/04/28 03:01:35;;;;;;;;;;;;;;;3.14;66.63;99168.31;2070137;28;19920;-58
2021/04/28 03:02:38;;;;;;;;;;;;;;;3.14;66.59;99164.91;2070461;28;19917;-57
2021/04/28 03:03:39;;;;;;;;;;;;;;;3.12;66.38;99167.50;2070328;28;20000;-57
2021/04/28 03:04:40;;;;;;;;;;;;;;;3.11;66.61;99164.06;2070739;28;19923;-57
2021/04/28 03:05:40;;;;;;;;;;;;;;;3.11;67.09;99166.66;2070573;28;20373;-57
2021/04/28 03:06:41;;;;;;;;;;;;;;;3.14;67.02;99170.06;2070404;28;19921;-57
2021/04/28 03:07:41;;;;;;;;;;;;;;;3.08;66.91;99164.16;2070017;28;19956;-58
2021/04/28 03:08:41;;;;;;;;;;;;;;;3.08;66.87;99164.16;2070585;28;19945;-57
2021/04/28 03:09:42;;;;;;;;;;;;;;;3.07;67.41;99175.31;2070088;28;19916;-57
2021/04/28 03:10:43;;;;;;;;;;;;;;;3.02;67.22;99161.66;2070317;28;20020;-57
2021/04/28 03:11:44;;;;;;;;;;;;;;;3.02;66.98;99163.38;2070239;28;20412;-58
2021/04/28 03:12:45;;;;;;;;;;;;;;;2.98;67.54;99167.75;2066657;28;19918;-57
2021/04/28 03:13:45;;;;;;;;;;;;;;;2.98;67.64;99165.16;2070488;28;20508;-58
2021/04/28 03:14:46;;;;;;;;;;;;;;;2.96;67.67;99166.91;2070494;28;20587;-57
2021/04/28 03:15:48;;;;;;;;;;;;;;;2.96;67.89;99164.34;2070348;28;19921;-57
2021/04/28 03:16:48;;;;;;;;;;;;;;;2.95;67.63;99165.19;2069870;28;20008;-58
2021/04/28 03:17:50;;;;;;;;;;;;;;;2.94;67.62;99163.50;2069918;28;20409;-57
2021/04/28 03:18:51;;;;;;;;;;;;;;;2.99;67.74;99163.44;2070478;28;19962;-57
2021/04/28 03:19:54;;;;;;;;;;;;;;;2.99;67.77;99160.84;2070096;28;20425;-57
2021/04/28 03:20:54;;;;;;;;;;;;;;;2.98;67.97;99165.16;2070286;28;20075;-57
2021/04/28 03:21:54;;;;;;;;;;;;;;;2.99;67.83;99158.28;2066860;28;20422;-57
2021/04/28 03:22:55;;;;;;;;;;;;;;;2.97;67.67;99160.88;2065790;28;19924;-58
2021/04/28 03:23:55;;;;;;;;;;;;;;;3.01;68.13;99170.25;2070221;28;19921;-57
2021/04/28 03:24:56;;;;;;;;;;;;;;;3.02;68.23;99155.66;2069720;28;19905;-58
2021/04/28 03:25:56;;;;;;;;;;;;;;;3.02;68.25;99169.38;2069968;28;20358;-57
2021/04/28 03:27:06;;;;;;;;;;;;;;;3.04;68.17;99167.63;2070470;28;19933;-58
2021/04/28 03:28:07;;;;;;;;;;;;;;;3.03;68.13;99168.50;2070293;28;19913;-58
2021/04/28 03:29:07;;;;;;;;;;;;;;;3.03;67.99;99172.81;2070444;28;19913;-58
2021/04/28 03:30:09;;;;;;;;;;;;;;;2.98;68.41;99167.75;2070264;28;19913;-58
2021/04/28 03:31:09;;;;;;;;;;;;;;;2.98;68.28;99166.88;2070431;28;20004;-57
2021/04/28 03:32:09;;;;;;;;;;;;;;;2.94;68.50;99173.78;2070242;28;19956;-58
2021/04/28 03:33:09;;;;;;;;;;;;;;;2.93;68.34;99172.09;2070141;28;19918;-57
2021/04/28 03:34:10;;;;;;;;;;;;;;;2.95;68.34;99172.91;2070525;28;20382;-58
2021/04/28 03:35:11;;;;;;;;;;;;;;;2.93;68.45;99169.50;2070792;28;19996;-57
2021/04/28 03:36:11;;;;;;;;;;;;;;;2.88;68.39;99169.59;2070447;28;19979;-57
2021/04/28 03:37:11;;;;;;;;;;;;;;;2.86;68.60;99168.75;2070983;28;19917;-58
2021/04/28 03:38:11;;;;;;;;;;;;;;;2.90;68.28;99165.28;2070610;28;19964;-58
2021/04/28 03:39:12;;;;;;;;;;;;;;;2.89;68.00;99176.44;2070967;28;20390;-58
2021/04/28 03:40:12;;;;;;;;;;;;;;;2.89;68.17;99167.88;2070870;28;19913;-58
2021/04/28 03:41:12;;;;;;;;;;;;;;;2.87;68.53;99170.47;2070655;28;19999;-58
2021/04/28 03:42:13;;;;;;;;;;;;;;;2.88;68.82;99166.19;2070955;28;19918;-58
2021/04/28 03:43:13;;;;;;;;;;;;;;;2.86;69.17;99175.63;2070188;28;19910;-57
2021/04/28 03:44:13;;;;;;;;;;;;;;;2.89;68.91;99171.28;2070918;28;20519;-58
2021/04/28 03:45:14;;;;;;;;;;;;;;;2.89;68.79;99183.31;2070829;28;19972;-57
2021/04/28 03:46:16;;;;;;;;;;;;;;;2.91;68.94;99176.41;2070554;28;20290;-57
2021/04/28 03:47:16;;;;;;;;;;;;;;;2.86;69.53;99179.06;2070904;28;20416;-57
2021/04/28 03:48:16;;;;;;;;;;;;;;;2.86;69.42;99173.06;2070804;28;19921;-57
2021/04/28 03:49:17;;;;;;;;;;;;;;;2.84;69.03;99180.78;2070675;28;20369;-58
2021/04/28 03:50:17;;;;;;;;;;;;;;;2.82;69.55;99181.69;2070680;28;19932;-66
2021/04/28 03:51:20;;;;;;;;;;;;;;;2.83;69.37;99179.13;2070799;28;19913;-67
2021/04/28 03:52:20;;;;;;;;;;;;;;;2.78;69.56;99184.34;2070961;28;20423;-67
2021/04/28 03:53:21;;;;;;;;;;;;;;;2.77;69.77;99182.63;2070247;28;20003;-66
2021/04/28 03:54:21;;;;;;;;;;;;;;;2.82;69.59;99181.69;2071059;28;20358;-69
2021/04/28 03:55:21;;;;;;;;;;;;;;;2.78;69.41;99179.19;2070626;28;20552;-67
2021/04/28 03:56:24;;;;;;;;;;;;;;;2.84;69.24;99182.53;2070442;28;19953;-67
2021/04/28 03:57:24;;;;;;;;;;;;;;;2.85;69.36;99181.66;2070682;28;20012;-67
2021/04/28 03:58:24;;;;;;;;;;;;;;;2.83;69.24;99181.69;2070721;28;19917;-67
2021/04/28 03:59:25;;;;;;;;;;;;;;;2.88;69.23;99191.91;2070660;28;19913;-67
2021/04/28 04:00:25;;;;;;;;;;;;;;;2.86;69.37;99188.50;2070707;28;20404;-67
2021/04/28 04:01:25;;;;;;;;;;;;;;;2.87;69.28;99182.50;2070814;28;19917;-67
2021/04/28 04:02:25;;;;;;;;;;;;;;;2.90;69.24;99192.72;2070842;28;20317;-68
2021/04/28 04:03:26;;;;;;;;;;;;;;;2.88;69.34;99184.19;2070259;28;20213;-66
2021/04/28 04:04:26;;;;;;;;;;;;;;;2.93;69.19;99182.38;2070785;28;19925;-67
2021/04/28 04:05:26;;;;;;;;;;;;;;;2.94;69.21;99189.25;2071998;28;20429;-66
2021/04/28 04:06:26;;;;;;;;;;;;;;;3.03;68.81;99183.09;2070770;28;20007;-67
2021/04/28 04:07:27;;;;;;;;;;;;;;;2.98;68.93;99188.31;2070354;28;19910;-66
2021/04/28 04:08:27;;;;;;;;;;;;;;;3.02;69.17;99189.13;2070772;28;20309;-66
2021/04/28 04:09:27;;;;;;;;;;;;;;;3.00;68.75;99186.56;2070556;28;19921;-67
2021/04/28 04:10:28;;;;;;;;;;;;;;;3.06;68.82;99188.19;2070324;28;19910;-66
2021/04/28 04:11:29;;;;;;;;;;;;;;;3.20;68.56;99191.41;2070859;28;19917;-67
2021/04/28 04:12:29;;;;;;;;;;;;;;;3.17;68.32;99191.44;2070568;28;19910;-67
2021/04/28 04:13:30;;;;;;;;;;;;;;;3.16;68.22;99194.06;2070328;28;20258;-66
2021/04/28 04:14:30;;;;;;;;;;;;;;;3.14;68.27;99194.06;2071039;28;19924;-67
2021/04/28 04:15:30;;;;;;;;;;;;;;;3.18;68.21;99192.31;2069642;28;20012;-67
2021/04/28 04:16:30;;;;;;;;;;;;;;;3.21;68.32;99192.25;2069659;28;19917;-68
2021/04/28 04:17:31;;;;;;;;;;;;;;;3.22;68.52;99194.81;2069602;28;20056;-67
2021/04/28 04:18:31;;;;;;;;;;;;;;;3.24;68.43;99194.78;2070344;28;19920;-67
2021/04/28 04:19:31;;;;;;;;;;;;;;;3.34;67.93;99191.19;2070541;28;19913;-67
2021/04/28 04:20:32;;;;;;;;;;;;;;;3.37;67.57;99198.00;2070194;28;19909;-66
2021/04/28 04:21:32;;;;;;;;;;;;;;;3.32;67.92;99192.91;2071928;28;19924;-67
2021/04/28 04:22:32;;;;;;;;;;;;;;;3.36;67.98;99196.28;2071468;28;19913;-67
2021/04/28 04:23:33;;;;;;;;;;;;;;;3.35;67.91;99195.44;2071941;28;19917;-67
2021/04/28 04:24:33;;;;;;;;;;;;;;;3.41;67.57;99199.66;2071850;28;20370;-66
2021/04/28 04:25:33;;;;;;;;;;;;;;;3.45;67.17;99197.88;2072103;28;19956;-67
2021/04/28 04:26:34;;;;;;;;;;;;;;;3.45;67.34;99196.13;2071481;28;19917;-67
2021/04/28 04:27:34;;;;;;;;;;;;;;;3.43;67.60;99198.75;2071204;28;19960;-66
2021/04/28 04:28:34;;;;;;;;;;;;;;;3.47;67.40;99201.28;2071257;28;19917;-67
2021/04/28 04:29:34;;;;;;;;;;;;;;;3.48;67.09;99192.69;2072069;28;20432;-67
2021/04/28 04:30:35;;;;;;;;;;;;;;;3.49;67.58;99196.91;2071977;28;19952;-67
2021/04/28 04:31:35;;;;;;;;;;;;;;;3.52;67.39;99196.88;2071937;28;19917;-67
2021/04/28 04:32:36;;;;;;;;;;;;;;;3.56;67.10;99194.22;2071987;28;19917;-67
2021/04/28 04:33:36;;;;;;;;;;;;;;;3.62;66.76;99197.59;2072389;28;20381;-67
2021/04/28 04:34:37;;;;;;;;;;;;;;;3.68;66.57;99202.63;2070460;28;19964;-67
2021/04/28 04:35:37;;;;;;;;;;;;;;;3.73;66.69;99200.78;2063397;28;19940;-67
2021/04/28 04:36:38;;;;;;;;;;;;;;;3.76;66.36;99192.16;2070432;28;19913;-67
2021/04/28 04:37:38;;;;;;;;;;;;;;;3.77;66.31;99191.28;2072055;28;19917;-67
2021/04/28 04:38:38;;;;;;;;;;;;;;;3.81;66.12;99193.78;2071621;28;20000;-67
2021/04/28 04:39:38;;;;;;;;;;;;;;;3.85;66.07;99197.16;2072011;28;19917;-67
2021/04/28 04:40:39;;;;;;;;;;;;;;;3.90;66.14;99203.06;2072114;28;20508;-66
2021/04/28 04:41:39;;;;;;;;;;;;;;;3.96;65.64;99200.38;2071893;28;20833;-66
2021/04/28 04:42:39;;;;;;;;;;;;;;;3.97;65.84;99202.06;2072063;28;19909;-66
2021/04/28 04:43:39;;;;;;;;;;;;;;;4.00;65.30;99204.56;2072008;28;20340;-66
2021/04/28 04:44:40;;;;;;;;;;;;;;;4.05;65.39;99200.19;2071779;28;19916;-67
2021/04/28 04:45:40;;;;;;;;;;;;;;;4.09;65.14;99206.16;2071316;28;19943;-66
2021/04/28 04:46:40;;;;;;;;;;;;;;;4.14;64.83;99206.06;2071049;28;19940;-67
2021/04/28 04:47:40;;;;;;;;;;;;;;;4.18;64.76;99199.94;2071966;28;20366;-67
2021/04/28 04:48:41;;;;;;;;;;;;;;;4.24;64.12;99205.00;2071502;28;20501;-66
2021/04/28 04:49:42;;;;;;;;;;;;;;;4.27;64.36;99201.50;2071077;28;19913;-67
2021/04/28 04:50:43;;;;;;;;;;;;;;;4.29;64.66;99203.16;2072236;28;19913;-66
2021/04/28 04:51:43;;;;;;;;;;;;;;;4.33;64.01;99202.22;2071710;28;19953;-66
2021/04/28 04:52:43;;;;;;;;;;;;;;;4.40;64.09;99197.78;2071498;28;19917;-67
2021/04/28 04:53:43;;;;;;;;;;;;;;;4.43;64.06;99207.19;2071684;28;19917;-66
2021/04/28 04:54:43;;;;;;;;;;;;;;;4.59;63.01;99203.38;2071896;28;19920;-67
2021/04/28 04:55:44;;;;;;;;;;;;;;;4.62;63.62;99198.16;2071535;28;19970;-67
2021/04/28 04:56:44;;;;;;;;;;;;;;;4.70;62.93;99205.75;2071695;28;19949;-66
2021/04/28 04:57:44;;;;;;;;;;;;;;;4.73;63.24;99203.06;2070979;28;19948;-67
2021/04/28 04:58:44;;;;;;;;;;;;;;;4.82;62.69;99199.44;2071759;28;19917;-67
2021/04/28 04:59:44;;;;;;;;;;;;;;;4.88;62.36;99209.63;2071882;28;19913;-67
2021/04/28 05:00:45;;;;;;;;;;;;;;;4.95;61.82;99206.00;2071557;28;19929;-67
2021/04/28 05:01:45;;;;;;;;;;;;;;;5.05;61.54;99200.63;2071489;28;19913;-67
2021/04/28 05:02:46;;;;;;;;;;;;;;;5.13;60.92;99202.16;2071241;28;20001;-67
2021/04/28 05:03:46;;;;;;;;;;;;;;;5.21;60.88;99198.53;2071059;28;20361;-67
2021/04/28 05:04:46;;;;;;;;;;;;;;;5.26;61.24;99205.28;2071712;28;20579;-67
2021/04/28 05:05:46;;;;;;;;;;;;;;;5.32;60.73;99204.28;2071042;28;19967;-67
2021/04/28 05:06:46;;;;;;;;;;;;;;;5.37;60.58;99209.34;2071082;28;19959;-67
2021/04/28 05:07:47;;;;;;;;;;;;;;;5.46;59.69;99206.53;2071569;28;19913;-67
2021/04/28 05:08:47;;;;;;;;;;;;;;;5.53;59.53;99207.22;2071191;28;19913;-67
2021/04/28 05:09:47;;;;;;;;;;;;;;;5.51;59.52;99209.00;2071623;28;19921;-67